Time;durP1;ratioP1;P1;durP2;ratioP2;P2;SDS_P1;SDS_P2;PMS_P1;PMS_P2;Temp;Humidity;BMP_temperature;BMP_pressure;BME280_temperature;BME280_humidity;BME280_pressure;Samples;Min_cycle;Max_cycle;Signal;HPM_P1;HPM_P2
2022/04/21 00:00:30;;;;;;;;;;;;;;;5.32;82.74;100761.16;4939622;29;20046;-88
2022/04/21 00:02:56;;;;;;;10.35;8.35;;;;;;;5.23;82.71;100749.41;4932768;29;19914;-89
2022/04/21 00:05:24;;;;;;;10.63;8.32;;;;;;;5.34;81.86;100768.06;4958318;28;20022;-86
2022/04/21 00:07:50;;;;;;;11.13;8.80;;;;;;;5.28;82.21;100769.38;4968170;28;20384;-91
2022/04/21 00:10:16;;;;;;;11.50;8.87;;;;;;;5.20;82.35;100766.50;4921280;29;20099;-87
2022/04/21 00:12:44;;;;;;;13.35;10.07;;;;;;;5.12;82.92;100771.59;4939760;29;20165;-89
2022/04/21 00:15:10;;;;;;;12.82;9.50;;;;;;;5.20;82.58;100779.00;4924126;28;20491;-89
2022/04/21 00:17:35;;;;;;;14.32;10.50;;;;;;;5.17;83.17;100788.06;4951473;28;20030;-88
2022/04/21 00:20:01;;;;;;;12.98;10.50;;;;;;;5.11;83.08;100788.56;4960189;28;20500;-88
2022/04/21 00:25:11;;;;;;;14.25;10.48;;;;;;;5.34;82.36;100791.19;4942459;28;20443;-89
2022/04/21 00:27:40;;;;;;;15.70;10.68;;;;;;;5.38;82.63;100796.13;4946902;28;20043;-90
2022/04/21 00:30:08;;;;;;;14.88;10.40;;;;;;;5.37;81.70;100781.13;4974732;28;20037;-88
2022/04/21 00:32:37;;;;;;;12.35;9.70;;;;;;;5.48;81.82;100785.59;4949087;29;20035;-87
2022/04/21 00:35:04;;;;;;;12.95;9.93;;;;;;;5.47;80.38;100778.56;4954215;28;20494;-88
2022/04/21 00:37:29;;;;;;;;;;;;;;;5.34;81.44;100792.06;4952045;28;20137;-90
2022/04/21 00:39:55;;;;;;;;;;;;;;;5.36;81.15;100791.91;4945744;29;19914;-89
2022/04/21 00:42:20;;;;;;;13.67;9.80;;;;;;;5.19;81.24;100790.59;4922117;28;19914;-89
2022/04/21 00:44:49;;;;;;;12.80;10.03;;;;;;;5.13;81.41;100807.06;4943796;29;20042;-89
2022/04/21 00:47:14;;;;;;;14.65;10.95;;;;;;;5.11;81.59;100793.06;4960303;28;20067;-88
2022/04/21 00:49:40;;;;;;;15.60;10.90;;;;;;;5.15;81.79;100810.47;4936904;29;20554;-87
2022/04/21 00:52:05;;;;;;;15.03;11.07;;;;;;;5.10;81.47;100804.66;4934764;28;20321;-88
2022/04/21 00:54:31;;;;;;;15.50;10.85;;;;;;;5.13;81.53;100807.94;4949867;28;20150;-91
2022/04/21 00:57:00;;;;;;;15.63;11.35;;;;;;;5.06;81.40;100812.06;4930268;29;20123;-89
2022/04/21 00:59:25;;;;;;;14.23;10.73;;;;;;;4.97;81.66;100807.47;4931051;29;20089;-88
2022/04/21 01:04:48;;;;;;;14.63;11.00;;;;;;;4.94;81.80;100824.53;4938481;28;20049;-86
2022/04/21 01:07:13;;;;;;;14.43;10.27;;;;;;;4.83;81.98;100828.03;4928524;28;20031;-87
2022/04/21 01:09:46;;;;;;;13.55;10.52;;;;;;;4.79;82.26;100837.22;4955409;28;20027;-88
2022/04/21 01:12:15;;;;;;;12.82;9.88;;;;;;;4.71;82.23;100829.00;4915595;29;20194;-87
2022/04/21 01:14:43;;;;;;;13.40;10.10;;;;;;;4.91;81.82;100853.22;4916583;29;20051;-88
2022/04/21 01:17:09;;;;;;;14.13;10.48;;;;;;;4.75;82.13;100845.56;4937891;28;20055;-90
2022/04/21 01:19:34;;;;;;;15.18;9.90;;;;;;;4.76;82.05;100852.63;4937908;29;20455;-87
2022/04/21 01:22:00;;;;;;;12.55;9.30;;;;;;;4.80;81.97;100854.06;4944667;28;20131;-87
2022/04/21 01:24:29;;;;;;;12.40;9.35;;;;;;;4.58;82.28;100860.19;4945450;29;20107;-87
2022/04/21 01:26:55;;;;;;;12.50;9.35;;;;;;;4.55;82.37;100833.81;4903106;29;20098;-88
2022/04/21 01:29:20;;;;;;;12.65;9.73;;;;;;;4.67;82.27;100848.84;4924184;29;20419;-88
2022/04/21 01:31:46;;;;;;;13.00;9.53;;;;;;;4.50;82.52;100830.66;4953512;28;20031;-87
2022/04/21 01:34:17;;;;;;;12.48;10.13;;;;;;;4.47;82.55;100817.56;4934855;29;20846;-88
2022/04/21 01:42:18;;;;;;;14.95;10.02;;;;;;;4.63;82.56;100837.56;4926053;28;20126;-87
2022/04/21 01:44:46;;;;;;;11.52;8.82;;;;;;;4.70;82.10;100813.13;4937723;29;20029;-89
2022/04/21 01:47:12;;;;;;;11.30;8.45;;;;;;;4.76;81.96;100808.19;4922951;28;20069;-88
2022/04/21 01:49:37;;;;;;;11.35;9.07;;;;;;;4.90;81.64;100806.25;4955920;28;20122;-86
2022/04/21 01:52:03;;;;;;;11.68;8.70;;;;;;;4.73;82.03;100802.22;4939672;28;20028;-88
2022/04/21 01:54:32;;;;;;;12.05;8.57;;;;;;;4.95;81.39;100796.06;4957074;28;20027;-87
2022/04/21 01:57:00;;;;;;;11.25;8.55;;;;;;;4.93;81.21;100806.00;4956070;28;20039;-89
2022/04/21 01:59:25;;;;;;;11.77;9.05;;;;;;;4.87;81.73;100799.34;4934865;29;20039;-88
2022/04/21 02:01:54;;;;;;;12.07;9.20;;;;;;;4.99;80.75;100805.53;4939496;28;20233;-87
2022/04/21 02:04:19;;;;;;;11.90;9.02;;;;;;;4.89;81.10;100789.41;4927747;29;20062;-88
2022/04/21 02:06:45;;;;;;;11.23;8.57;;;;;;;5.12;80.87;100806.22;4927127;28;20058;-87
2022/04/21 02:09:10;;;;;;;14.03;8.33;;;;;;;5.20;80.57;100811.81;4949723;28;20334;-89
2022/04/21 02:11:36;;;;;;;11.97;8.33;;;;;;;5.02;80.47;100800.78;4944547;29;20042;-87
2022/04/21 02:14:03;;;;;;;10.82;8.35;;;;;;;5.19;80.27;100823.44;4923677;29;20282;-88
2022/04/21 02:16:28;;;;;;;;;;;;;;;5.24;80.42;100825.72;4937336;28;20035;-88
2022/04/21 02:18:54;;;;;;;;;;;;;;;5.12;80.87;100827.56;4948533;29;19964;-87
2022/04/21 02:21:19;;;;;;;11.00;8.32;;;;;;;4.98;80.96;100825.13;4921958;28;19906;-88
2022/04/21 02:23:45;;;;;;;11.57;8.57;;;;;;;4.85;80.75;100820.78;4910697;29;20210;-88
2022/04/21 02:26:13;;;;;;;12.33;8.40;;;;;;;4.79;79.97;100826.56;4967892;28;20346;-89
2022/04/21 02:28:39;;;;;;;10.95;8.50;;;;;;;4.91;81.06;100846.09;4986000;28;20300;-85
2022/04/21 02:31:04;;;;;;;11.23;8.73;;;;;;;4.79;81.88;100839.91;4971735;28;20027;-85
2022/04/21 02:33:31;;;;;;;12.48;9.13;;;;;;;4.79;82.20;100842.56;4950677;29;20098;-84
2022/04/21 02:35:56;;;;;;;;;;;;;;;4.68;82.69;100845.19;4948209;29;20069;-89
2022/04/21 02:38:21;;;;;;;;;;;;;;;4.70;82.60;100848.59;4936075;28;19910;-87
2022/04/21 02:40:47;;;;;;;12.13;8.93;;;;;;;4.63;82.19;100850.03;4956852;28;19910;-89
2022/04/21 02:43:15;;;;;;;13.97;9.47;;;;;;;4.62;81.04;100848.34;4967689;28;20027;-88
2022/04/21 02:45:41;;;;;;;12.43;8.90;;;;;;;4.62;81.17;100848.34;4973733;28;20031;-87
2022/04/21 02:48:11;;;;;;;12.00;9.85;;;;;;;4.60;81.15;100848.47;4933108;28;20498;-88
2022/04/21 02:50:37;;;;;;;11.82;8.93;;;;;;;4.51;81.74;100827.84;4921989;29;20499;-89
2022/04/21 02:53:02;;;;;;;14.90;10.32;;;;;;;4.72;80.89;100843.16;4941714;29;20118;-87
2022/04/21 02:58:14;;;;;;;12.80;9.55;;;;;;;4.56;81.26;100836.34;4964694;28;20595;-87
2022/04/21 03:00:40;;;;;;;12.93;9.88;;;;;;;4.56;81.15;100831.00;4940758;28;20422;-88
2022/04/21 03:03:06;;;;;;;13.07;9.60;;;;;;;4.62;81.14;100851.00;4925072;28;20485;-88
2022/04/21 03:05:31;;;;;;;14.07;9.87;;;;;;;4.63;81.24;100847.38;4920315;29;20047;-91
2022/04/21 03:07:59;;;;;;;13.77;9.40;;;;;;;4.66;80.84;100839.16;4936772;29;20346;-86
2022/04/21 03:10:25;;;;;;;14.52;10.07;;;;;;;4.61;81.26;100855.50;4934021;29;20016;-88
2022/04/21 03:12:50;;;;;;;13.63;9.93;;;;;;;4.57;81.30;100859.34;4956533;28;20046;-89
2022/04/21 03:15:16;;;;;;;14.33;10.43;;;;;;;4.54;81.12;100864.06;4905358;29;20023;-89
2022/04/21 03:17:44;;;;;;;16.17;11.10;;;;;;;4.49;81.79;100879.53;4931550;29;20276;-87
2022/04/21 03:24:18;;;;;;;13.60;10.85;;;;;;;4.57;80.73;100872.66;4904414;29;20388;-86
2022/04/21 03:25:39;;;;;;;15.77;11.18;;;;;;;4.56;81.00;100878.09;4906582;29;20074;-89
2022/04/21 03:28:05;;;;;;;14.83;11.17;;;;;;;4.61;80.71;100887.47;4940057;28;20063;-88
2022/04/21 03:30:30;;;;;;;16.77;11.95;;;;;;;4.55;81.04;100876.41;4939533;28;20058;-89
2022/04/21 03:32:56;;;;;;;19.53;12.57;;;;;;;4.50;80.92;100871.44;4916580;29;20469;-91
2022/04/21 03:35:22;;;;;;;21.00;14.90;;;;;;;4.54;80.75;100880.03;4953713;28;20066;-90
2022/04/21 03:37:48;;;;;;;21.77;15.52;;;;;;;4.52;80.40;100887.28;4952321;28;20090;-89
2022/04/21 03:40:18;;;;;;;21.37;14.20;;;;;;;4.31;80.77;100864.00;4954771;28;20109;-87
2022/04/21 03:42:43;;;;;;;22.45;14.93;;;;;;;4.41;80.58;100880.97;4946957;29;20477;-88
2022/04/21 03:45:09;;;;;;;21.13;14.97;;;;;;;4.36;80.83;100877.81;4921096;28;20196;-86
2022/04/21 03:47:42;;;;;;;22.23;14.93;;;;;;;4.36;81.11;100866.31;4924936;28;20730;-88
2022/04/21 03:50:10;;;;;;;21.92;14.68;;;;;;;4.33;80.88;100871.84;4940113;28;20370;-87
2022/04/21 03:52:35;;;;;;;19.58;13.27;;;;;;;4.30;80.75;100878.25;4934654;29;20094;-87
2022/04/21 03:55:01;;;;;;;21.45;14.63;;;;;;;4.28;80.67;100871.34;4935143;28;20042;-89
2022/04/21 03:57:27;;;;;;;20.60;14.03;;;;;;;4.29;81.05;100871.25;4916692;28;20562;-90
2022/04/21 03:59:53;;;;;;;18.95;13.00;;;;;;;4.31;81.00;100872.00;4949444;28;20043;-89
2022/04/21 04:02:18;;;;;;;17.65;12.45;;;;;;;4.12;80.96;100837.94;4936690;28;20103;-88
2022/04/21 04:04:44;;;;;;;17.10;12.50;;;;;;;4.36;80.54;100877.81;4944418;28;20019;-89
2022/04/21 04:12:42;;;;;;;16.42;11.60;;;;;;;4.51;79.51;100869.63;4950369;29;20059;-89
2022/04/21 04:15:09;;;;;;;16.70;13.30;;;;;;;4.46;79.69;100853.16;4940031;28;20034;-88
2022/04/21 04:17:35;;;;;;;15.85;11.70;;;;;;;4.55;79.39;100868.44;4939095;28;20117;-89
2022/04/21 04:20:00;;;;;;;16.73;11.73;;;;;;;4.59;79.55;100861.91;4958394;28;20037;-90
2022/04/21 04:22:26;;;;;;;17.30;12.03;;;;;;;4.64;79.31;100868.56;4953551;29;20421;-89
2022/04/21 04:24:54;;;;;;;17.23;12.50;;;;;;;4.58;79.62;100858.38;4929419;29;20031;-88
2022/04/21 04:27:21;;;;;;;16.58;11.82;;;;;;;4.69;79.27;100857.56;4947986;28;20034;-89
2022/04/21 04:29:46;;;;;;;17.67;11.98;;;;;;;4.73;79.12;100869.69;4906771;29;20032;-90
2022/04/21 04:32:14;;;;;;;18.87;12.97;;;;;;;4.89;78.68;100871.16;4917545;28;20385;-88
2022/04/21 04:34:42;;;;;;;17.83;11.95;;;;;;;4.87;78.22;100865.97;4933482;29;20072;-87
2022/04/21 04:37:07;;;;;;;15.52;12.02;;;;;;;4.85;77.79;100871.41;4939817;28;20507;-87
2022/04/21 04:39:33;;;;;;;17.77;11.90;;;;;;;5.00;77.36;100860.50;4911970;29;20107;-90
2022/04/21 04:42:22;;;;;;;16.30;12.10;;;;;;;5.18;77.41;100871.56;4909716;28;20313;-88
2022/04/21 04:44:49;;;;;;;18.98;12.00;;;;;;;5.17;76.92;100862.69;4923907;29;20028;-87
2022/04/21 04:47:15;;;;;;;16.65;12.13;;;;;;;5.27;76.46;100879.66;4961029;28;20031;-89
2022/04/21 04:49:41;;;;;;;16.30;11.40;;;;;;;5.22;76.20;100871.19;4959280;28;20058;-89
2022/04/21 04:52:09;;;;;;;16.65;11.50;;;;;;;5.34;76.07;100861.38;4941184;28;20289;-87
2022/04/21 04:54:35;;;;;;;14.65;11.00;;;;;;;5.46;76.09;100862.22;4927541;29;20119;-89
2022/04/21 04:57:01;;;;;;;15.45;11.65;;;;;;;5.91;75.03;100862.09;4949941;28;20465;-88
2022/04/21 04:59:27;;;;;;;14.70;11.30;;;;;;;7.79;68.78;100863.78;4923669;28;20031;-90
2022/04/21 05:01:53;;;;;;;12.35;10.25;;;;;;;9.61;62.46;100874.53;4916652;28;20027;-87
2022/04/21 05:04:19;;;;;;;12.88;9.55;;;;;;;10.31;58.29;100850.59;4943888;28;20032;-89
2022/04/21 05:06:52;;;;;;;11.57;9.23;;;;;;;11.88;54.31;100884.69;4952641;28;20071;-89
2022/04/21 05:09:19;;;;;;;13.23;9.38;;;;;;;13.07;50.85;100876.97;4929680;29;20047;-88
2022/04/21 05:11:48;;;;;;;15.88;9.23;;;;;;;13.71;49.12;100876.09;4948495;28;20031;-89
2022/04/21 05:14:14;;;;;;;12.48;8.88;;;;;;;14.94;45.79;100889.63;4921553;29;20035;-89
2022/04/21 05:16:42;;;;;;;10.10;8.65;;;;;;;14.94;45.86;100886.09;4911119;28;20086;-91
2022/04/21 05:19:08;;;;;;;10.73;8.10;;;;;;;14.50;45.62;100875.97;4926866;29;20161;-89
2022/04/21 05:21:34;;;;;;;;;;;;;;;15.52;43.93;100880.88;4913309;28;20089;-89
2022/04/21 05:24:08;;;;;;;9.20;8.05;;;;;;;15.58;42.73;100874.72;4932737;29;19906;-88
2022/04/21 05:26:34;;;;;;;13.98;8.63;;;;;;;16.48;42.27;100887.00;4968253;28;20047;-87
2022/04/21 05:29:00;;;;;;;8.65;6.60;;;;;;;16.69;39.50;100883.44;4968767;28;20598;-91
2022/04/21 05:31:28;;;;;;;9.57;7.35;;;;;;;16.96;39.45;100887.25;4915539;28;20499;-91
2022/04/21 05:33:54;;;;;;;10.95;7.10;;;;;;;17.74;37.73;100884.34;4944784;28;20031;-89
2022/04/21 05:36:21;;;;;;;9.70;6.55;;;;;;;16.49;39.80;100894.13;4959335;28;20554;-88
2022/04/21 05:38:49;;;;;;;7.53;6.70;;;;;;;17.50;38.57;100885.72;4930457;29;20043;-91
2022/04/21 05:41:17;;;;;;;8.88;6.93;;;;;;;17.04;39.14;100880.81;4922959;28;20027;-88
2022/04/21 05:43:44;;;;;;;9.90;6.70;;;;;;;18.21;36.52;100871.78;4916113;29;20031;-88
2022/04/21 05:46:10;;;;;;;7.95;6.38;;;;;;;17.02;38.49;100883.75;4932505;28;20130;-88
2022/04/21 05:48:36;;;;;;;12.68;6.25;;;;;;;17.22;38.52;100888.47;4931047;29;20122;-91
2022/04/21 05:51:02;;;;;;;;;;;;;;;18.23;36.52;100894.19;4935957;28;20027;-90
2022/04/21 05:53:28;;;;;;;11.23;6.30;;;;;;;19.22;34.61;100891.72;4933763;28;20359;-90
2022/04/21 05:55:53;;;;;;;;;;;;;;;19.46;34.62;100901.97;4973560;28;20065;-89
2022/04/21 05:58:20;;;;;;;12.27;6.60;;;;;;;18.72;35.29;100881.25;4958980;28;20347;-88
2022/04/21 06:00:45;;;;;;;8.80;6.50;;;;;;;19.42;34.65;100887.06;4972016;28;20185;-89
2022/04/21 06:03:11;;;;;;;;;;;;;;;21.03;31.82;100896.06;4940875;28;20121;-88
2022/04/21 06:05:37;;;;;;;13.52;7.75;;;;;;;19.61;34.24;100896.25;4955219;28;19954;-89
2022/04/21 06:08:03;;;;;;;12.45;6.47;;;;;;;20.85;31.59;100900.41;4959031;28;20189;-90
2022/04/21 06:10:32;;;;;;;15.95;7.10;;;;;;;21.06;31.17;100899.19;4954482;29;20436;-91
2022/04/21 06:12:57;;;;;;;8.88;5.72;;;;;;;20.50;30.97;100891.00;4964524;28;20023;-89
2022/04/21 06:15:23;;;;;;;9.07;6.13;;;;;;;19.79;32.82;100895.59;4973219;28;20023;-90
2022/04/21 06:17:48;;;;;;;12.45;6.43;;;;;;;19.52;33.20;100890.19;4946457;29;20067;-90
2022/04/21 06:20:14;;;;;;;8.60;6.57;;;;;;;21.25;30.94;100908.25;4973574;28;20054;-92
2022/04/21 06:22:42;;;;;;;9.73;6.20;;;;;;;20.85;30.77;100905.88;4949281;29;20023;-87
2022/04/21 06:25:08;;;;;;;13.00;6.05;;;;;;;21.96;29.42;100922.44;4970373;28;20058;-88
2022/04/21 06:27:34;;;;;;;11.18;5.78;;;;;;;21.13;30.59;100901.03;4949877;28;20120;-88
2022/04/21 06:29:59;;;;;;;18.02;6.78;;;;;;;22.39;29.64;100905.03;4940531;29;20081;-86
2022/04/21 06:32:27;;;;;;;15.93;6.90;;;;;;;22.66;29.06;100904.59;4939557;29;20383;-88
2022/04/21 06:34:54;;;;;;;9.75;6.88;;;;;;;22.01;29.15;100914.38;4936120;28;20125;-90
2022/04/21 06:37:22;;;;;;;14.70;6.90;;;;;;;22.76;29.23;100915.84;4949953;28;20038;-90
2022/04/21 06:39:47;;;;;;;12.15;7.13;;;;;;;22.37;28.96;100926.34;4924012;29;20023;-89
2022/04/21 06:42:26;;;;;;;11.30;6.18;;;;;;;22.23;28.96;100912.00;4951611;28;20039;-89
2022/04/21 06:50:25;;;;;;;11.55;6.05;;;;;;;22.14;28.45;100902.41;4925170;29;20660;-89
2022/04/21 06:52:51;;;;;;;8.10;6.20;;;;;;;20.90;30.23;100907.13;4927933;29;20028;-89
2022/04/21 06:55:16;;;;;;;9.60;5.80;;;;;;;19.79;32.39;100917.41;4908919;29;20023;-91
2022/04/21 06:57:42;;;;;;;9.77;6.32;;;;;;;20.02;32.29;100925.94;4949874;28;20030;-89
2022/04/21 07:00:09;;;;;;;9.05;6.35;;;;;;;21.18;30.51;100926.63;4945671;28;20048;-91
2022/04/21 07:02:38;;;;;;;14.77;6.10;;;;;;;19.82;32.54;100917.81;4933071;29;20396;-92
2022/04/21 07:05:07;;;;;;;9.95;5.88;;;;;;;20.24;32.61;100910.06;4898346;29;20035;-89
2022/04/21 07:07:34;;;;;;;12.93;6.20;;;;;;;20.09;31.77;100905.94;4936778;28;20506;-89
2022/04/21 07:10:01;;;;;;;10.05;5.57;;;;;;;20.71;31.23;100917.16;4942232;29;20027;-90
2022/04/21 07:12:30;;;;;;;10.73;5.78;;;;;;;21.09;30.84;100922.50;4941689;28;20039;-90
2022/04/21 07:15:06;;;;;;;13.27;6.03;;;;;;;21.19;30.84;100911.91;4958231;28;20065;-90
2022/04/21 07:17:32;;;;;;;8.57;5.55;;;;;;;21.39;30.24;100927.25;4935404;28;20136;-87
2022/04/21 07:19:59;;;;;;;7.97;5.72;;;;;;;21.37;30.38;100916.53;4925608;29;20028;-89
2022/04/21 07:22:27;;;;;;;7.80;5.80;;;;;;;21.68;30.02;100915.63;4951338;28;20031;-89
2022/04/21 07:24:53;;;;;;;6.60;5.85;;;;;;;21.50;29.49;100910.97;4934730;28;20410;-89
2022/04/21 07:27:18;;;;;;;18.33;5.90;;;;;;;21.92;29.62;100910.28;4967830;28;20043;-89
2022/04/21 07:29:44;;;;;;;10.75;5.90;;;;;;;23.04;28.08;100919.81;4923633;29;20039;-90
2022/04/21 07:32:10;;;;;;;9.30;5.85;;;;;;;21.95;28.91;100890.66;4947969;28;20035;-92
2022/04/21 07:34:36;;;;;;;8.88;5.60;;;;;;;21.88;29.29;100918.09;4936122;29;20457;-89
2022/04/21 07:37:04;;;;;;;8.07;5.72;;;;;;;23.16;28.01;100924.25;4934246;29;20087;-91
2022/04/21 07:39:29;;;;;;;9.77;6.03;;;;;;;23.42;27.23;100913.88;4945798;29;20054;-91
2022/04/21 07:41:57;;;;;;;13.27;5.43;;;;;;;23.95;26.95;100907.34;4947011;28;20042;-92
2022/04/21 07:44:23;;;;;;;13.43;6.13;;;;;;;23.73;26.50;100929.09;4937837;29;20036;-91
2022/04/21 07:46:48;;;;;;;13.63;5.88;;;;;;;24.14;26.38;100921.72;4931717;28;20024;-90
2022/04/21 07:54:52;;;;;;;16.40;5.55;;;;;;;24.39;25.50;100917.78;4933218;28;20035;-89
2022/04/21 07:57:23;;;;;;;10.77;6.10;;;;;;;23.58;27.13;100934.25;4917113;29;20094;-91
2022/04/21 08:00:08;;;;;;;12.63;6.25;;;;;;;23.99;26.87;100929.66;4928581;29;20103;-89
2022/04/21 08:02:34;;;;;;;9.88;5.28;;;;;;;24.94;25.53;100908.88;4948777;29;20035;-94
2022/04/21 08:05:00;;;;;;;11.02;6.30;;;;;;;24.64;25.36;100915.53;4982965;28;20024;-90
2022/04/21 08:07:27;;;;;;;10.27;6.90;;;;;;;24.09;25.43;100907.91;4957808;28;20043;-90
2022/04/21 08:09:56;;;;;;;6.55;5.20;;;;;;;24.27;25.18;100897.78;4949090;29;20102;-90
2022/04/21 08:12:24;;;;;;;18.40;7.35;;;;;;;23.62;27.48;100932.69;4965454;28;20039;-89
2022/04/21 08:14:55;;;;;;;24.65;7.43;;;;;;;24.03;26.49;100922.59;4941107;29;20066;-88
2022/04/21 08:17:24;;;;;;;11.02;5.40;;;;;;;23.96;25.90;100909.00;4977033;28;20042;-91
2022/04/21 08:19:50;;;;;;;7.03;5.55;;;;;;;24.33;25.73;100910.56;4948302;29;20082;-89
2022/04/21 08:22:16;;;;;;;10.88;6.45;;;;;;;23.50;26.78;100894.28;4947994;28;20488;-90
2022/04/21 08:33:00;;;;;;;;;;;;;;;23.04;26.75;100928.91;4963141;28;20411;-91
2022/04/21 08:35:26;;;;;;;9.55;5.43;;;;;;;23.11;27.01;100928.81;4922772;29;20001;-90
2022/04/21 08:37:52;;;;;;;14.75;7.07;;;;;;;24.29;26.02;100923.94;4925906;29;20038;-91
2022/04/21 08:40:18;;;;;;;13.32;6.07;;;;;;;24.14;26.31;100924.47;4905984;29;20044;-91
2022/04/21 08:42:44;;;;;;;11.98;6.88;;;;;;;25.00;25.24;100929.88;4942131;28;20038;-91
2022/04/21 08:45:12;;;;;;;8.70;6.70;;;;;;;25.91;24.11;100931.50;4916105;29;20023;-91
2022/04/21 08:47:46;;;;;;;15.82;7.53;;;;;;;25.64;23.74;100906.63;4946307;29;20038;-93
2022/04/21 08:50:14;;;;;;;13.60;5.97;;;;;;;27.19;21.69;100916.22;4940663;29;20059;-91
2022/04/21 08:52:41;;;;;;;9.45;6.22;;;;;;;26.66;22.35;100899.50;4947588;28;20023;-91
2022/04/21 08:55:08;;;;;;;11.98;6.68;;;;;;;27.07;22.26;100919.16;4920621;29;20035;-91
2022/04/21 08:57:35;;;;;;;14.43;6.85;;;;;;;27.97;21.53;100904.50;4954800;28;20139;-91
2022/04/21 09:00:02;;;;;;;8.57;7.00;;;;;;;29.30;19.78;100898.28;4951083;28;20031;-92
2022/04/21 09:02:48;;;;;;;7.63;6.30;;;;;;;29.29;19.69;100888.28;4969393;28;20523;-91
2022/04/21 09:05:15;;;;;;;10.20;6.57;;;;;;;29.89;19.03;100903.06;4941376;28;20057;-91
2022/04/21 09:07:49;;;;;;;12.80;6.82;;;;;;;30.27;18.85;100900.66;4974495;28;20046;-91
2022/04/21 09:10:20;;;;;;;9.52;6.30;;;;;;;28.75;20.23;100887.81;4963359;28;20027;-91
2022/04/21 09:12:47;;;;;;;8.65;7.20;;;;;;;27.84;20.35;100892.03;4940240;28;20038;-93
2022/04/21 09:15:37;;;;;;;9.05;6.43;;;;;;;28.18;20.71;100877.75;4949488;29;20054;-90
2022/04/21 09:18:13;;;;;;;9.55;7.18;;;;;;;28.90;19.90;100908.25;4957497;28;20070;-92
2022/04/21 09:20:41;;;;;;;10.20;6.63;;;;;;;30.66;18.32;100880.41;4891310;29;20038;-91
2022/04/21 09:23:10;;;;;;;25.02;8.35;;;;;;;30.18;19.02;100869.94;4957766;28;20034;-90
2022/04/21 09:25:49;;;;;;;13.52;7.10;;;;;;;31.55;17.52;100892.03;4958703;28;20031;-91
2022/04/21 09:28:23;;;;;;;11.52;7.82;;;;;;;28.90;19.18;100891.66;4952189;28;20117;-93
2022/04/21 09:30:53;;;;;;;10.65;7.15;;;;;;;26.97;21.06;100885.13;4941400;29;20019;-91
2022/04/21 09:33:42;;;;;;;11.13;9.80;;;;;;;25.17;22.78;100894.13;4919493;28;20516;-90
2022/04/21 09:36:08;;;;;;;7.65;6.90;;;;;;;24.43;24.13;100886.00;4958765;28;20395;-89
2022/04/21 09:38:35;;;;;;;13.55;7.35;;;;;;;24.62;24.09;100890.19;4959797;28;20032;-92
2022/04/21 09:41:11;;;;;;;10.27;7.18;;;;;;;23.46;25.64;100886.78;4931493;29;20054;-90
2022/04/21 09:43:41;;;;;;;10.10;7.38;;;;;;;25.46;23.52;100891.25;4938392;28;20109;-90
2022/04/21 09:46:11;;;;;;;15.27;7.70;;;;;;;26.00;23.21;100888.63;4905716;29;20127;-90
2022/04/21 09:48:36;;;;;;;16.33;7.38;;;;;;;26.23;22.80;100889.44;4928938;28;20027;-90
2022/04/21 09:51:31;;;;;;;7.13;6.40;;;;;;;27.34;20.76;100882.38;4975184;28;20049;-91
2022/04/21 09:54:00;;;;;;;10.48;7.20;;;;;;;26.61;22.16;100874.66;4946094;29;20050;-90
2022/04/21 09:56:35;;;;;;;13.00;6.43;;;;;;;28.90;20.11;100870.34;4938019;28;20034;-89
2022/04/21 09:59:03;;;;;;;9.88;7.07;;;;;;;29.03;18.35;100880.00;4955218;28;20047;-90
2022/04/21 10:01:29;;;;;;;8.65;6.32;;;;;;;26.59;20.92;100879.59;4932437;28;20455;-90
2022/04/21 10:03:55;;;;;;;8.27;6.45;;;;;;;25.83;21.53;100888.69;4914590;29;20039;-89
2022/04/21 10:06:21;;;;;;;13.60;6.85;;;;;;;25.95;21.76;100887.75;4915991;28;20061;-91
2022/04/21 10:08:48;;;;;;;8.13;5.53;;;;;;;23.18;23.85;100869.19;4921051;29;20448;-90
2022/04/21 10:11:14;;;;;;;12.02;6.35;;;;;;;24.69;22.41;100887.28;4924611;28;20046;-90
2022/04/21 10:13:40;;;;;;;6.68;5.38;;;;;;;24.53;25.00;100894.44;4916998;29;20028;-91
2022/04/21 10:16:07;;;;;;;5.68;4.93;;;;;;;23.12;28.57;100875.63;4918353;28;20119;-90
2022/04/21 10:18:34;;;;;;;8.15;4.63;;;;;;;21.76;31.65;100889.84;4901308;29;20039;-91
2022/04/21 10:21:03;;;;;;;6.85;5.05;;;;;;;22.03;31.25;100884.00;4922001;29;20066;-90
2022/04/21 10:23:28;;;;;;;6.25;5.35;;;;;;;21.10;33.29;100893.28;4953204;28;20049;-91
2022/04/21 10:26:01;;;;;;;7.97;5.30;;;;;;;21.11;33.15;100876.63;4896805;29;20472;-92
2022/04/21 10:28:39;;;;;;;8.35;5.13;;;;;;;19.56;35.19;100896.88;4936391;29;20053;-90
2022/04/21 10:31:33;;;;;;;11.40;5.30;;;;;;;20.50;33.74;100901.94;4923642;28;20106;-90
2022/04/21 10:34:00;;;;;;;8.68;5.55;;;;;;;21.20;32.37;100901.78;4921129;29;20031;-89
2022/04/21 10:36:33;;;;;;;7.38;5.68;;;;;;;20.47;33.52;100907.84;4933691;28;20125;-89
2022/04/21 10:39:16;;;;;;;7.63;5.18;;;;;;;18.69;36.20;100911.66;4928623;29;20049;-90
2022/04/21 10:41:42;;;;;;;9.02;5.90;;;;;;;18.17;38.06;100910.47;4945321;28;20042;-92
2022/04/21 10:44:13;;;;;;;;;;;;;;;18.90;36.90;100910.63;4926748;29;20063;-89
2022/04/21 10:46:39;;;;;;;8.93;5.72;;;;;;;20.38;34.10;100897.16;4945475;28;19957;-93
2022/04/21 10:49:04;;;;;;;7.32;5.55;;;;;;;20.33;34.04;100891.53;4918195;29;20035;-90
2022/04/21 10:57:31;;;;;;;7.97;5.40;;;;;;;20.85;32.21;100910.50;4955118;28;20118;-89
2022/04/21 11:00:08;;;;;;;8.63;5.47;;;;;;;20.71;32.76;100904.31;4954553;28;20062;-88
2022/04/21 11:02:38;;;;;;;9.02;5.60;;;;;;;20.85;32.10;100900.41;4981516;28;20031;-89
2022/04/21 11:05:22;;;;;;;6.43;5.20;;;;;;;20.41;32.54;100910.38;4963301;28;20058;-88
2022/04/21 11:07:55;;;;;;;7.72;6.32;;;;;;;19.00;34.05;100923.84;4977172;28;20027;-91
2022/04/21 11:10:29;;;;;;;7.30;5.50;;;;;;;18.84;34.62;100914.19;4963279;29;20023;-91
2022/04/21 11:12:54;;;;;;;8.77;5.97;;;;;;;17.90;36.58;100916.69;4944035;28;20031;-90
2022/04/21 11:15:33;;;;;;;;;;;;;;;16.62;38.71;100926.84;4919767;29;20035;-90
2022/04/21 11:18:07;;;;;;;8.98;5.45;;;;;;;16.51;39.72;100902.09;4966653;28;19945;-93
2022/04/21 11:20:41;;;;;;;8.10;5.80;;;;;;;17.03;39.00;100901.72;4963421;28;20057;-91
2022/04/21 11:23:22;;;;;;;8.65;6.03;;;;;;;18.42;35.28;100911.59;4961768;28;20418;-91
2022/04/21 11:25:50;;;;;;;10.55;5.95;;;;;;;18.47;35.94;100906.38;4927478;29;20032;-91
2022/04/21 11:28:25;;;;;;;7.63;5.45;;;;;;;18.56;35.49;100935.06;4950372;28;20027;-91
2022/04/21 11:31:03;;;;;;;7.95;4.63;;;;;;;17.84;35.55;100922.94;4950074;28;20026;-92
2022/04/21 11:33:31;;;;;;;11.82;5.00;;;;;;;18.85;33.77;100905.81;4972909;28;20192;-90
2022/04/21 11:36:03;;;;;;;8.13;4.88;;;;;;;18.92;33.90;100922.16;4949704;29;20028;-91
2022/04/21 11:38:32;;;;;;;5.97;4.95;;;;;;;19.15;33.51;100922.56;4977136;28;20023;-92
2022/04/21 11:41:03;;;;;;;7.78;5.60;;;;;;;19.51;33.15;100909.50;4940146;28;20419;-92
2022/04/21 11:43:32;;;;;;;7.40;4.95;;;;;;;19.40;33.40;100905.53;4939675;28;20034;-91
2022/04/21 11:45:59;;;;;;;8.85;5.28;;;;;;;19.99;33.15;100922.78;4945104;29;20113;-92
2022/04/21 11:48:34;;;;;;;7.95;5.28;;;;;;;20.06;33.27;100892.72;4956511;28;20054;-93
2022/04/21 11:51:03;;;;;;;10.68;4.80;;;;;;;19.85;33.45;100913.81;4960427;28;20110;-91
2022/04/21 11:53:33;;;;;;;9.70;5.68;;;;;;;19.82;34.23;100897.88;4942123;28;20102;-91
2022/04/21 11:55:59;;;;;;;10.40;5.50;;;;;;;19.48;35.08;100921.69;4928409;29;20046;-91
2022/04/21 11:58:34;;;;;;;;;;;;;;;19.49;35.38;100923.34;4958554;28;20046;-91
2022/04/21 12:06:41;;;;;;;6.63;4.65;;;;;;;19.52;34.53;100903.00;4978643;28;20056;-91
2022/04/21 12:09:19;;;;;;;7.18;4.68;;;;;;;18.97;35.00;100898.69;4975286;28;20489;-90
2022/04/21 12:11:53;;;;;;;8.50;4.50;;;;;;;18.46;35.59;100895.69;4923030;28;20066;-91
2022/04/21 12:14:18;;;;;;;7.97;4.95;;;;;;;18.09;37.09;100897.91;4935688;29;20400;-92
2022/04/21 12:16:49;;;;;;;;;;;;;;;17.74;37.64;100900.66;4946128;28;20502;-92
2022/04/21 12:19:39;;;;;;;5.70;4.30;;;;;;;17.84;37.37;100875.84;4970923;28;19918;-93
2022/04/21 12:22:08;;;;;;;6.55;4.35;;;;;;;17.80;36.18;100897.16;4953121;28;20109;-92